Time;durP1;ratioP1;P1;durP2;ratioP2;P2;SDS_P1;SDS_P2;PMS_P1;PMS_P2;Temp;Humidity;BMP_temperature;BMP_pressure;BME280_temperature;BME280_humidity;BME280_pressure;Samples;Min_cycle;Max_cycle;Signal;HPM_P1;HPM_P2
2021/12/16 00:01:47;;;;;;;;;;;;;;;17.48;62.63;101965.94;5052357;28;1412;-37
2021/12/16 00:07:22;;;;;;;;;;;;;;;17.47;62.25;101965.06;5041897;28;2317;-36
2021/12/16 00:10:20;;;;;;;;;;;;;;;17.50;61.98;101970.22;5049521;28;1785;-36
2021/12/16 00:32:20;;;;;;;;;;;;;;;17.38;62.02;101987.03;5049692;28;1785;-36
2021/12/16 00:34:47;;;;;;;;;;;;;;;17.40;62.12;101985.13;5053974;28;1661;-36
2021/12/16 00:37:16;;;;;;;;;;;;;;;17.40;61.98;101979.78;5052318;28;1873;-37
2021/12/16 00:39:44;;;;;;;;;;;;;;;17.39;61.39;101966.50;5041612;28;1906;-36
2021/12/16 00:42:31;;;;;;;;;;;;;;;17.40;61.68;101979.78;5044992;28;1810;-36
2021/12/16 00:45:28;;;;;;;;;;;;;;;17.34;61.75;101980.16;5043166;28;1726;-36
2021/12/16 00:47:59;;;;;;;;;;;;;;;17.25;61.79;101960.22;5054344;28;1957;-36
2021/12/16 00:56:00;;;;;;;;;;;;;;;17.34;61.64;101979.31;5054687;28;926;-36
2021/12/16 00:58:34;;;;;;;;;;;;;;;17.33;61.50;101970.44;5053705;28;2030;-36
2021/12/16 01:01:07;;;;;;;;;;;;;;;17.28;61.37;101967.16;5053878;28;1698;-36
2021/12/16 01:03:41;;;;;;;;;;;;;;;17.27;61.42;101960.13;5050684;28;1996;-36
2021/12/16 01:06:39;;;;;;;;;;;;;;;17.29;61.33;101960.88;5048747;28;1689;-36
2021/12/16 01:34:18;;;;;;;;;;;;;;;17.18;60.88;101958.00;5050563;28;1940;-36
2021/12/16 01:37:32;;;;;;;;;;;;;;;17.20;61.37;101956.09;5050645;28;2032;-36
2021/12/16 01:40:13;;;;;;;;;;;;;;;17.22;61.06;101946.16;5039811;28;2050;-37
2021/12/16 01:51:15;;;;;;;;;;;;;;;17.18;61.00;101958.00;5046166;28;1910;-36
2021/12/16 01:56:45;;;;;;;;;;;;;;;17.13;60.64;101938.72;5053426;28;2334;-35
2021/12/16 01:59:22;;;;;;;;;;;;;;;17.13;60.88;101954.75;5052541;28;1973;-35
2021/12/16 02:01:59;;;;;;;;;;;;;;;17.12;60.60;101942.34;5052114;28;1804;-36
2021/12/16 02:04:41;;;;;;;;;;;;;;;17.12;60.66;101942.34;5048135;28;1792;-36
2021/12/16 02:07:24;;;;;;;;;;;;;;;17.06;60.31;101933.75;5048494;28;1809;-35
2021/12/16 02:09:57;;;;;;;;;;;;;;;17.05;60.21;101932.03;5045300;28;1711;-35
2021/12/16 02:12:47;;;;;;;;;;;;;;;17.08;60.59;101934.50;5051561;28;1957;-35
2021/12/16 02:29:19;;;;;;;;;;;;;;;17.03;60.01;101939.28;5052123;28;856;-36
2021/12/16 02:32:02;;;;;;;;;;;;;;;17.03;60.43;101944.63;5053467;28;1589;-38
2021/12/16 02:34:55;;;;;;;;;;;;;;;16.98;59.89;101957.41;5050584;28;1720;-37
2021/12/16 02:37:29;;;;;;;;;;;;;;;17.00;60.15;101944.81;5047671;28;1746;-36
2021/12/16 02:40:00;;;;;;;;;;;;;;;17.04;60.12;101932.97;5053299;28;1988;-36
2021/12/16 02:42:36;;;;;;;;;;;;;;;17.01;60.30;101943.00;5052416;28;1918;-36
2021/12/16 02:50:33;;;;;;;;;;;;;;;16.98;60.37;101930.69;5042420;28;1888;-35
2021/12/16 02:53:05;;;;;;;;;;;;;;;17.01;60.54;101949.22;5051726;28;1784;-36
2021/12/16 02:55:34;;;;;;;;;;;;;;;16.99;60.10;101942.22;5052946;28;1172;-35
2021/12/16 02:58:01;;;;;;;;;;;;;;;17.01;60.61;101930.50;5052128;28;1616;-35
2021/12/16 03:03:10;;;;;;;;;;;;;;;16.96;60.26;101937.94;4653617;26;2209;-35
2021/12/16 03:05:37;;;;;;;;;;;;;;;16.97;60.32;101926.31;5083940;28;2156;-36
2021/12/16 03:08:20;;;;;;;;;;;;;;;16.94;59.80;101923.81;5078254;28;1856;-35
2021/12/16 03:13:41;;;;;;;;;;;;;;;16.94;60.13;101934.50;5066927;28;2514;-35
2021/12/16 03:16:22;;;;;;;;;;;;;;;16.93;60.18;101926.56;5087699;28;2010;-35
2021/12/16 03:19:09;;;;;;;;;;;;;;;16.93;59.87;101922.09;5072890;28;1957;-35
2021/12/16 03:21:42;;;;;;;;;;;;;;;16.90;59.91;101924.94;5061868;28;1729;-36
2021/12/16 03:24:30;;;;;;;;;;;;;;;16.86;59.83;101904.72;5073837;28;1927;-35
2021/12/16 03:27:33;;;;;;;;;;;;;;;16.90;59.97;101927.63;5074157;28;2022;-35
2021/12/16 03:36:05;;;;;;;;;;;;;;;16.86;59.96;101918.09;4998969;28;1776;-35
2021/12/16 03:38:33;;;;;;;;;;;;;;;16.91;59.20;101932.03;5056664;28;1993;-35
2021/12/16 03:41:00;;;;;;;;;;;;;;;16.90;59.88;101935.63;5055605;28;1052;-35
2021/12/16 03:43:42;;;;;;;;;;;;;;;16.86;59.80;101931.44;5074036;28;1762;-35
2021/12/16 03:46:27;;;;;;;;;;;;;;;16.88;59.66;101934.88;5080712;28;1635;-35
2021/12/16 03:49:00;;;;;;;;;;;;;;;16.82;59.98;101935.25;5073511;28;1791;-36
2021/12/16 03:51:32;;;;;;;;;;;;;;;16.81;58.96;101928.13;5078132;28;1775;-35
2021/12/16 03:54:02;;;;;;;;;;;;;;;16.86;59.78;101931.44;5078067;28;1674;-35
2021/12/16 03:56:30;;;;;;;;;;;;;;;16.87;58.82;101938.47;5092888;28;1752;-35
2021/12/16 03:59:03;;;;;;;;;;;;;;;16.88;58.75;101934.88;5054853;28;2012;-36
2021/12/16 04:01:32;;;;;;;;;;;;;;;16.86;59.70;101947.47;5072384;28;1775;-38
2021/12/16 04:04:00;;;;;;;;;;;;;;;16.74;59.90;101937.50;5071365;28;1840;-35
2021/12/16 04:06:29;;;;;;;;;;;;;;;16.64;60.93;101943.38;5057229;28;1500;-36
2021/12/16 04:08:57;;;;;;;;;;;;;;;16.70;60.80;101942.16;5067376;28;1933;-35
2021/12/16 04:11:27;;;;;;;;;;;;;;;16.72;60.98;101934.91;5069168;28;1852;-38
2021/12/16 04:13:57;;;;;;;;;;;;;;;16.70;61.26;101934.13;5080686;28;1123;-35
2021/12/16 04:16:24;;;;;;;;;;;;;;;16.61;61.16;101940.91;5077198;28;1817;-34
2021/12/16 04:18:56;;;;;;;;;;;;;;;16.53;61.32;101944.97;5073898;28;1953;-35
2021/12/16 04:21:26;;;;;;;;;;;;;;;16.53;61.98;101940.47;5059421;28;1833;-35
2021/12/16 04:24:01;;;;;;;;;;;;;;;16.51;62.16;101942.38;5064107;28;1511;-35
2021/12/16 04:26:30;;;;;;;;;;;;;;;16.49;62.85;101938.94;5068965;28;1806;-35
2021/12/16 04:28:59;;;;;;;;;;;;;;;16.57;63.07;101947.34;5091760;28;1127;-35
2021/12/16 04:31:26;;;;;;;;;;;;;;;16.65;62.75;101944.22;5076326;28;1907;-35
2021/12/16 04:34:04;;;;;;;;;;;;;;;16.63;62.05;101946.13;5079368;28;1734;-35
2021/12/16 04:36:32;;;;;;;;;;;;;;;16.62;62.55;101944.44;5068880;28;2228;-36
2021/12/16 04:41:41;;;;;;;;;;;;;;;16.58;63.09;101930.38;5072639;28;2588;-36
2021/12/16 04:44:19;;;;;;;;;;;;;;;16.55;63.50;101919.88;5072671;28;1560;-35
2021/12/16 04:46:47;;;;;;;;;;;;;;;16.54;63.09;101931.53;5073338;28;1626;-35
2021/12/16 04:49:17;;;;;;;;;;;;;;;16.53;63.02;101928.94;5073770;28;1084;-35
2021/12/16 04:51:47;;;;;;;;;;;;;;;16.54;62.83;101949.38;5077305;28;1147;-36
2021/12/16 04:54:14;;;;;;;;;;;;;;;16.50;62.69;101938.00;5084197;28;2000;-35
2021/12/16 04:56:55;;;;;;;;;;;;;;;16.53;62.39;101947.63;5072708;28;1885;-35
2021/12/16 04:59:25;;;;;;;;;;;;;;;16.43;63.87;101952.66;5069432;28;1910;-36
2021/12/16 05:04:51;;;;;;;;;;;;;;;16.37;63.11;101953.84;5061621;28;1860;-34
2021/12/16 05:07:18;;;;;;;;;;;;;;;16.30;64.25;101940.00;5082719;28;1831;-35
2021/12/16 05:12:28;;;;;;;;;;;;;;;16.28;63.93;101949.94;5062399;28;2213;-35
2021/12/16 05:14:54;;;;;;;;;;;;;;;16.28;63.48;101946.41;5071866;28;1946;-35
2021/12/16 05:17:28;;;;;;;;;;;;;;;16.29;64.32;101943.66;5079481;28;1831;-35
2021/12/16 05:20:03;;;;;;;;;;;;;;;16.33;63.85;101948.78;5074360;28;1905;-35
2021/12/16 05:25:25;;;;;;;;;;;;;;;16.44;63.65;101963.25;5073141;28;1900;-34
2021/12/16 05:27:52;;;;;;;;;;;;;;;16.47;63.50;101957.75;5082943;28;1726;-37
2021/12/16 05:30:20;;;;;;;;;;;;;;;16.49;63.61;101955.84;5079361;28;1918;-35
2021/12/16 05:32:48;;;;;;;;;;;;;;;16.47;63.70;101957.75;5073816;28;1887;-34
2021/12/16 05:35:22;;;;;;;;;;;;;;;16.49;64.28;101938.94;5086190;28;1730;-35
2021/12/16 05:37:53;;;;;;;;;;;;;;;16.52;63.97;101961.94;5068110;28;1949;-36
2021/12/16 05:40:24;;;;;;;;;;;;;;;16.51;63.02;101961.06;5064092;28;1914;-35
2021/12/16 05:45:45;;;;;;;;;;;;;;;16.41;64.58;101965.22;5065329;28;2489;-35
2021/12/16 05:48:15;;;;;;;;;;;;;;;16.46;63.35;101964.00;5072258;28;1725;-35
2021/12/16 05:50:48;;;;;;;;;;;;;;;16.45;63.79;101953.41;5067695;28;1789;-35
2021/12/16 05:56:07;;;;;;;;;;;;;;;16.50;64.64;101946.00;5061156;28;2588;-35
2021/12/16 06:01:17;;;;;;;;;;;;;;;16.42;64.71;101970.47;5066573;28;2513;-35
2021/12/16 06:03:45;;;;;;;;;;;;;;;16.45;66.04;101964.09;5064159;28;1802;-35
2021/12/16 06:06:28;;;;;;;;;;;;;;;16.42;64.40;101974.97;5072449;28;1843;-36
2021/12/16 06:08:57;;;;;;;;;;;;;;;16.43;65.65;101979.34;5068415;28;1793;-35
2021/12/16 06:11:25;;;;;;;;;;;;;;;16.40;65.31;101969.72;5073323;28;1755;-36
2021/12/16 06:14:04;;;;;;;;;;;;;;;16.44;65.10;101970.41;5074275;28;1560;-35
2021/12/16 06:27:29;;;;;;;;;;;;;;;18.45;62.11;101979.31;5069113;28;1805;-36
2021/12/16 06:29:56;;;;;;;;;;;;;;;18.62;62.86;101975.50;5072536;28;1748;-37
2021/12/16 06:32:23;;;;;;;;;;;;;;;18.59;62.48;101975.69;5069237;28;1928;-37
2021/12/16 06:34:49;;;;;;;;;;;;;;;18.80;62.45;101972.56;5071117;28;1799;-37
2021/12/16 06:37:16;;;;;;;;;;;;;;;19.00;60.28;101968.50;5074239;28;1717;-36
2021/12/16 06:39:44;;;;;;;;;;;;;;;19.22;59.86;101957.16;5075294;28;1910;-37
2021/12/16 06:42:11;;;;;;;;;;;;;;;19.33;59.82;101954.56;5072122;28;2071;-39
2021/12/16 06:44:43;;;;;;;;;;;;;;;19.46;59.23;101950.03;5075661;28;1864;-38
2021/12/16 06:47:15;;;;;;;;;;;;;;;19.51;59.45;101951.53;5078360;28;1930;-37
2021/12/16 06:49:44;;;;;;;;;;;;;;;18.62;58.68;101959.44;5069548;28;1553;-36
2021/12/16 06:52:14;;;;;;;;;;;;;;;18.05;60.38;101959.66;5069101;28;1732;-38
2021/12/16 06:54:54;;;;;;;;;;;;;;;17.73;61.93;101961.72;5070866;28;1134;-37
2021/12/16 06:57:26;;;;;;;;;;;;;;;17.58;62.22;101971.56;5068986;28;1710;-38
2021/12/16 06:59:57;;;;;;;;;;;;;;;17.46;62.61;101978.53;5073109;28;1898;-37
2021/12/16 07:02:42;;;;;;;;;;;;;;;17.39;63.19;101990.56;5067483;28;2058;-37
2021/12/16 07:05:10;;;;;;;;;;;;;;;17.27;63.12;101984.19;5066863;28;1739;-38
2021/12/16 07:07:37;;;;;;;;;;;;;;;17.17;63.49;101981.22;5070417;28;1715;-37
2021/12/16 07:10:04;;;;;;;;;;;;;;;17.15;63.93;101991.13;5074317;28;1092;-36
2021/12/16 07:12:37;;;;;;;;;;;;;;;17.13;63.93;101997.50;5074169;28;1935;-37
2021/12/16 07:15:04;;;;;;;;;;;;;;;17.07;63.77;101988.94;5077375;28;1936;-36
2021/12/16 07:17:31;;;;;;;;;;;;;;;17.04;64.17;101991.78;5084662;28;1759;-36
2021/12/16 07:19:57;;;;;;;;;;;;;;;17.06;63.43;101997.88;5085215;28;1902;-36
2021/12/16 07:22:23;;;;;;;;;;;;;;;17.05;64.20;102000.63;5082842;28;1650;-36
2021/12/16 07:24:50;;;;;;;;;;;;;;;17.03;63.64;102008.78;5074734;28;1083;-38
2021/12/16 07:27:16;;;;;;;;;;;;;;;17.00;64.08;102003.59;5076321;28;1927;-36
2021/12/16 07:29:44;;;;;;;;;;;;;;;16.99;64.29;102017.94;5071533;28;1817;-36
2021/12/16 07:32:11;;;;;;;;;;;;;;;16.96;64.18;102023.44;5074078;28;1894;-36
2021/12/16 07:34:37;;;;;;;;;;;;;;;16.92;64.34;102008.53;5073728;28;1775;-37
2021/12/16 07:37:06;;;;;;;;;;;;;;;16.85;64.23;102020.53;5074443;28;999;-37
2021/12/16 07:39:38;;;;;;;;;;;;;;;16.79;64.83;102021.75;5074071;28;1726;-37
2021/12/16 07:42:06;;;;;;;;;;;;;;;16.80;64.62;102018.13;5073457;28;1794;-37
2021/12/16 07:44:33;;;;;;;;;;;;;;;16.79;64.98;102015.53;5076323;28;1874;-36
2021/12/16 07:47:01;;;;;;;;;;;;;;;16.80;64.21;102030.63;5084470;28;1896;-36
2021/12/16 07:49:30;;;;;;;;;;;;;;;16.79;64.53;102010.19;5083513;28;1794;-37
2021/12/16 07:51:57;;;;;;;;;;;;;;;16.76;64.11;102016.56;5080872;28;1658;-39
2021/12/16 07:54:24;;;;;;;;;;;;;;;16.68;64.80;102002.81;5085721;28;1010;-37
2021/12/16 07:56:52;;;;;;;;;;;;;;;16.65;65.39;102013.66;5073437;28;1809;-37
2021/12/16 07:59:19;;;;;;;;;;;;;;;16.64;65.47;102007.47;5073380;28;1809;-36
2021/12/16 08:01:46;;;;;;;;;;;;;;;16.63;64.63;102019.13;5073574;28;1906;-37
2021/12/16 08:04:19;;;;;;;;;;;;;;;16.60;65.28;101999.75;5073035;28;1293;-36
2021/12/16 08:06:47;;;;;;;;;;;;;;;16.61;64.85;102010.34;5074683;28;1069;-36
2021/12/16 08:09:14;;;;;;;;;;;;;;;16.56;64.67;102009.72;5073460;28;1810;-37
2021/12/16 08:11:41;;;;;;;;;;;;;;;16.54;65.15;102006.28;5075746;28;1757;-36
2021/12/16 08:14:07;;;;;;;;;;;;;;;16.51;65.12;102001.13;5083156;28;1741;-36
2021/12/16 08:16:34;;;;;;;;;;;;;;;16.50;65.74;102002.09;5075028;28;1786;-38
2021/12/16 08:19:01;;;;;;;;;;;;;;;16.49;64.61;102003.91;5074250;28;2262;-37
2021/12/16 08:21:29;;;;;;;;;;;;;;;16.48;64.65;102001.31;5073344;28;2123;-36
2021/12/16 08:23:55;;;;;;;;;;;;;;;16.53;65.31;101999.22;5084439;28;2020;-35
2021/12/16 08:26:22;;;;;;;;;;;;;;;16.54;64.39;102000.94;5074190;28;1812;-37
2021/12/16 08:28:48;;;;;;;;;;;;;;;16.54;64.27;102000.09;5085125;28;1027;-36
2021/12/16 08:31:15;;;;;;;;;;;;;;;16.49;64.62;102008.34;5085611;28;1945;-38
2021/12/16 08:33:42;;;;;;;;;;;;;;;16.45;64.77;102007.69;5075230;28;1793;-41
2021/12/16 08:36:09;;;;;;;;;;;;;;;16.44;64.61;102000.63;5082040;28;1734;-36
2021/12/16 08:38:38;;;;;;;;;;;;;;;16.46;64.72;102003.22;5083120;28;1533;-36
2021/12/16 08:41:08;;;;;;;;;;;;;;;16.42;64.56;101991.84;5079881;28;1979;-36
2021/12/16 08:43:34;;;;;;;;;;;;;;;16.48;64.54;101986.13;5085510;28;1916;-36
2021/12/16 08:46:01;;;;;;;;;;;;;;;16.52;64.27;102002.84;5085162;28;1832;-37
2021/12/16 08:48:28;;;;;;;;;;;;;;;16.44;64.56;101986.41;5083101;28;1611;-36
2021/12/16 08:50:54;;;;;;;;;;;;;;;16.41;65.03;101992.81;5083252;28;1700;-36
2021/12/16 08:53:21;;;;;;;;;;;;;;;16.39;65.22;101992.00;5077302;28;1746;-36
2021/12/16 08:55:50;;;;;;;;;;;;;;;16.37;64.81;101993.03;5074955;28;1002;-36
2021/12/16 08:58:17;;;;;;;;;;;;;;;16.35;65.43;101989.59;5073322;28;1975;-36
2021/12/16 09:00:45;;;;;;;;;;;;;;;16.36;64.92;101996.69;5082261;28;1939;-37
2021/12/16 09:03:12;;;;;;;;;;;;;;;16.36;65.00;101999.34;5075288;28;1506;-36
2021/12/16 09:05:39;;;;;;;;;;;;;;;16.45;65.48;101985.44;5084754;28;2353;-36
2021/12/16 09:08:05;;;;;;;;;;;;;;;16.43;65.15;101982.00;5082979;28;1952;-36
2021/12/16 09:10:33;;;;;;;;;;;;;;;16.42;65.39;101980.31;5074547;28;1795;-36
2021/12/16 09:13:03;;;;;;;;;;;;;;;16.42;65.15;102001.66;5079601;28;1604;-37
2021/12/16 09:15:31;;;;;;;;;;;;;;;16.36;64.56;101996.69;5077540;28;1747;-36
2021/12/16 09:17:57;;;;;;;;;;;;;;;16.34;64.83;101994.09;5076534;28;1791;-37
2021/12/16 09:20:24;;;;;;;;;;;;;;;16.32;65.62;101990.66;5083565;28;1976;-36
2021/12/16 09:22:51;;;;;;;;;;;;;;;16.27;65.25;101982.91;5081981;28;1882;-36
2021/12/16 09:25:17;;;;;;;;;;;;;;;16.28;65.53;102000.63;5074369;28;1003;-36
2021/12/16 09:27:44;;;;;;;;;;;;;;;16.29;64.76;101991.69;5073498;28;1863;-36
2021/12/16 09:30:14;;;;;;;;;;;;;;;16.26;65.53;101988.34;5075330;28;1630;-37
2021/12/16 09:32:40;;;;;;;;;;;;;;;16.26;65.11;101975.84;5070989;28;1793;-35
2021/12/16 09:35:08;;;;;;;;;;;;;;;16.24;64.81;101985.75;5081757;28;1703;-36
2021/12/16 09:37:35;;;;;;;;;;;;;;;16.22;64.78;101984.97;5074263;28;1085;-36
2021/12/16 09:40:02;;;;;;;;;;;;;;;16.25;65.27;101979.47;5072060;28;1656;-36
2021/12/16 09:42:42;;;;;;;;;;;;;;;16.24;65.53;101990.25;5072947;28;1972;-37
2021/12/16 09:45:09;;;;;;;;;;;;;;;16.24;64.99;101982.22;5064593;28;1665;-37
2021/12/16 09:47:37;;;;;;;;;;;;;;;16.22;65.86;101974.31;5072666;28;1707;-37
2021/12/16 09:50:05;;;;;;;;;;;;;;;16.26;65.88;101978.50;5072858;28;1924;-35
2021/12/16 09:52:31;;;;;;;;;;;;;;;16.28;65.76;101983.78;5068802;28;1905;-36
2021/12/16 09:54:58;;;;;;;;;;;;;;;16.29;64.61;101989.03;5084466;28;1084;-36
2021/12/16 09:57:25;;;;;;;;;;;;;;;16.29;64.77;101965.00;5076065;28;1735;-36
2021/12/16 09:59:52;;;;;;;;;;;;;;;16.29;64.67;101986.38;5080685;28;2317;-36
2021/12/16 10:02:20;;;;;;;;;;;;;;;16.24;65.40;101967.06;5075207;28;1910;-37
2021/12/16 10:04:48;;;;;;;;;;;;;;;16.21;65.42;101988.56;5083137;28;1837;-36
2021/12/16 10:07:17;;;;;;;;;;;;;;;16.17;66.08;101980.84;5082266;28;1784;-37
2021/12/16 10:09:44;;;;;;;;;;;;;;;16.20;65.59;101986.03;5083593;28;1039;-36
2021/12/16 10:12:14;;;;;;;;;;;;;;;16.19;65.39;101971.78;5072407;28;2529;-37
2021/12/16 10:17:32;;;;;;;;;;;;;;;16.16;65.38;101974.66;5049300;28;1737;-36
2021/12/16 10:20:04;;;;;;;;;;;;;;;16.13;66.17;101953.47;5083789;28;1720;-37
2021/12/16 10:22:33;;;;;;;;;;;;;;;16.10;65.33;101964.34;5080840;28;1905;-36
2021/12/16 10:25:15;;;;;;;;;;;;;;;16.13;65.05;101948.13;5073568;28;1043;-36
2021/12/16 10:27:51;;;;;;;;;;;;;;;16.17;65.10;101956.81;5078379;28;1818;-36
2021/12/16 10:30:18;;;;;;;;;;;;;;;16.19;64.58;101958.44;5079110;28;2118;-36
2021/12/16 10:32:46;;;;;;;;;;;;;;;16.20;65.96;101944.16;5080063;28;1741;-36
2021/12/16 10:35:14;;;;;;;;;;;;;;;16.22;65.18;101944.09;5072292;28;2067;-36
2021/12/16 10:37:42;;;;;;;;;;;;;;;16.14;65.84;101939.19;5074762;28;1729;-36
2021/12/16 10:40:28;;;;;;;;;;;;;;;16.13;65.87;101932.13;5082357;28;1248;-37
2021/12/16 10:42:55;;;;;;;;;;;;;;;16.10;65.64;101940.31;5080644;28;1844;-37
2021/12/16 10:45:26;;;;;;;;;;;;;;;16.10;65.96;101943.84;5079349;28;1798;-36
2021/12/16 10:48:23;;;;;;;;;;;;;;;16.10;65.40;101945.66;5076143;28;1808;-36
2021/12/16 10:50:52;;;;;;;;;;;;;;;16.10;64.82;101926.97;5024717;28;1846;-37
2021/12/16 10:53:38;;;;;;;;;;;;;;;16.09;65.70;101920.78;5062642;28;1750;-37
2021/12/16 10:56:05;;;;;;;;;;;;;;;16.16;65.55;101929.28;5082651;28;2182;-37
2021/12/16 10:58:46;;;;;;;;;;;;;;;16.19;64.54;101918.41;5087841;28;1812;-36
2021/12/16 11:01:28;;;;;;;;;;;;;;;16.17;64.64;101931.00;5073710;28;1993;-36
2021/12/16 11:03:54;;;;;;;;;;;;;;;16.16;64.54;101941.78;5074400;28;1750;-36
2021/12/16 11:06:29;;;;;;;;;;;;;;;16.15;65.51;101927.56;5087561;28;1947;-39
2021/12/16 11:08:56;;;;;;;;;;;;;;;16.10;64.71;101926.97;5083304;28;1773;-37
2021/12/16 11:11:27;;;;;;;;;;;;;;;16.14;65.58;101936.53;5076624;28;1663;-37
2021/12/16 11:14:03;;;;;;;;;;;;;;;16.10;65.35;101921.63;5087550;28;1083;-37
2021/12/16 11:16:30;;;;;;;;;;;;;;;16.14;64.71;101923.19;5086981;28;1098;-36
2021/12/16 11:18:56;;;;;;;;;;;;;;;16.12;64.73;101929.56;5087261;28;1824;-36
2021/12/16 11:21:23;;;;;;;;;;;;;;;16.07;65.90;101916.47;5076017;28;2011;-36
2021/12/16 11:23:51;;;;;;;;;;;;;;;16.07;66.01;101927.13;5085373;28;1778;-37
2021/12/16 11:26:18;;;;;;;;;;;;;;;16.06;66.28;101941.44;5077205;28;1672;-37
2021/12/16 11:28:45;;;;;;;;;;;;;;;16.03;65.43;101930.94;5076172;28;1236;-37
2021/12/16 11:31:13;;;;;;;;;;;;;;;16.02;65.03;101918.56;5075080;28;1914;-36
2021/12/16 11:33:42;;;;;;;;;;;;;;;16.00;65.87;101926.63;5085076;28;1829;-36
2021/12/16 11:36:10;;;;;;;;;;;;;;;16.02;65.08;101927.41;5077973;28;1799;-36
2021/12/16 11:38:38;;;;;;;;;;;;;;;15.99;64.97;101918.72;5081487;28;1719;-36
2021/12/16 11:41:09;;;;;;;;;;;;;;;15.99;65.80;101908.03;5081100;28;1901;-37
2021/12/16 11:43:40;;;;;;;;;;;;;;;15.99;65.68;101908.03;5087390;28;1992;-36
2021/12/16 11:46:12;;;;;;;;;;;;;;;15.98;65.53;101917.00;5084583;28;1813;-36
2021/12/16 11:48:40;;;;;;;;;;;;;;;16.01;65.57;101915.00;5084358;28;1778;-36
2021/12/16 11:51:09;;;;;;;;;;;;;;;15.98;66.00;101907.19;5077738;28;1662;-36
2021/12/16 11:53:37;;;;;;;;;;;;;;;16.05;65.76;101907.69;5075058;28;1781;-36
2021/12/16 11:56:04;;;;;;;;;;;;;;;16.04;64.70;101909.50;5075298;28;1072;-36
2021/12/16 11:58:32;;;;;;;;;;;;;;;16.05;65.71;101908.53;5086109;28;1808;-37
2021/12/16 12:00:59;;;;;;;;;;;;;;;16.02;65.90;101905.22;5074695;28;1887;-36
2021/12/16 12:03:33;;;;;;;;;;;;;;;15.96;66.22;101906.41;5072990;28;1548;-36
2021/12/16 12:05:59;;;;;;;;;;;;;;;15.98;65.97;101899.19;5083057;28;1772;-36
2021/12/16 12:08:27;;;;;;;;;;;;;;;16.02;65.58;101897.22;5084142;28;1707;-37
2021/12/16 12:10:59;;;;;;;;;;;;;;;16.04;66.03;101888.16;5080246;28;1103;-36
2021/12/16 12:13:27;;;;;;;;;;;;;;;16.03;65.43;101904.25;5085750;28;1765;-36
2021/12/16 12:15:56;;;;;;;;;;;;;;;16.01;66.16;101892.81;5082135;28;1949;-36
2021/12/16 12:18:38;;;;;;;;;;;;;;;16.04;65.54;101903.31;5083907;28;1790;-36
2021/12/16 12:21:20;;;;;;;;;;;;;;;16.03;65.24;101901.59;5076854;28;1902;-36
2021/12/16 12:23:47;;;;;;;;;;;;;;;15.98;65.78;101890.34;5078020;28;1821;-37
2021/12/16 12:26:16;;;;;;;;;;;;;;;15.97;66.03;101899.28;5080051;28;1006;-38
2021/12/16 12:28:43;;;;;;;;;;;;;;;15.99;65.85;101881.38;5086571;28;998;-37
2021/12/16 12:31:11;;;;;;;;;;;;;;;15.96;66.03;101890.41;5084530;28;1877;-37
2021/12/16 12:33:37;;;;;;;;;;;;;;;15.97;65.74;101886.78;5074661;28;1665;-36
2021/12/16 12:36:04;;;;;;;;;;;;;;;16.02;65.16;101875.88;5081480;28;1897;-37
2021/12/16 12:38:31;;;;;;;;;;;;;;;16.01;66.07;101876.78;5083566;28;1619;-36
2021/12/16 12:40:58;;;;;;;;;;;;;;;15.96;65.01;101879.75;5081327;28;961;-36
2021/12/16 12:43:24;;;;;;;;;;;;;;;15.91;66.39;101882.66;5074192;28;1902;-36
2021/12/16 12:45:51;;;;;;;;;;;;;;;15.93;65.94;101876.38;5073868;28;1714;-36
2021/12/16 12:48:20;;;;;;;;;;;;;;;15.89;66.53;101892.56;5079155;28;1809;-36
2021/12/16 12:50:47;;;;;;;;;;;;;;;15.90;66.52;101891.63;5079213;28;1903;-36
2021/12/16 12:53:16;;;;;;;;;;;;;;;15.88;65.58;101884.66;5076762;28;1810;-35
2021/12/16 12:55:43;;;;;;;;;;;;;;;15.87;66.38;101889.13;5077229;28;1126;-35
2021/12/16 12:58:10;;;;;;;;;;;;;;;15.88;65.90;101882.84;5087489;28;1817;-37
2021/12/16 13:00:38;;;;;;;;;;;;;;;16.25;63.97;101888.72;5083073;28;1773;-36
2021/12/16 13:03:06;;;;;;;;;;;;;;;16.66;63.91;101872.03;5081582;28;1906;-36
2021/12/16 13:05:34;;;;;;;;;;;;;;;17.53;60.88;101888.06;5078610;28;2315;-36
2021/12/16 13:08:03;;;;;;;;;;;;;;;17.81;60.15;101887.16;5076694;28;1742;-36
2021/12/16 13:10:31;;;;;;;;;;;;;;;18.33;58.73;101873.00;5082949;28;1210;-36
2021/12/16 13:13:17;;;;;;;;;;;;;;;18.49;58.97;101872.81;5081664;28;1940;-37
2021/12/16 13:15:50;;;;;;;;;;;;;;;18.57;58.53;101872.31;5073860;28;2007;-37
2021/12/16 13:24:29;;;;;;;;;;;;;;;18.68;58.45;101878.63;5009371;28;1895;-36
2021/12/16 13:27:05;;;;;;;;;;;;;;;18.81;57.58;101875.13;5010727;28;1793;-37
2021/12/16 13:29:35;;;;;;;;;;;;;;;18.90;57.70;101869.13;5053220;28;1775;-37
2021/12/16 13:32:12;;;;;;;;;;;;;;;19.00;57.99;101877.34;5082659;28;1909;-37
2021/12/16 13:34:47;;;;;;;;;;;;;;;18.97;57.28;101872.22;5081194;28;1809;-37
2021/12/16 13:37:22;;;;;;;;;;;;;;;19.00;58.00;101872.00;5080946;28;1860;-37
2021/12/16 13:39:50;;;;;;;;;;;;;;;19.08;57.19;101883.91;5085344;28;1071;-35
2021/12/16 13:42:16;;;;;;;;;;;;;;;19.17;56.81;101873.50;5075425;28;2012;-36
2021/12/16 13:44:48;;;;;;;;;;;;;;;19.24;57.71;101874.78;5066092;28;1762;-36
2021/12/16 13:47:26;;;;;;;;;;;;;;;19.32;56.81;101871.50;5079510;28;1989;-36
2021/12/16 14:01:52;;;;;;;;;;;;;;;19.73;56.41;101865.84;5072763;28;1989;-36
2021/12/16 14:07:28;;;;;;;;;;;;;;;19.78;56.40;101852.94;5080886;28;2648;-36
2021/12/16 14:10:04;;;;;;;;;;;;;;;19.78;56.95;101847.59;5069633;28;1253;-36
2021/12/16 14:15:44;;;;;;;;;;;;;;;19.67;57.23;101859.06;4993718;28;1854;-36
2021/12/16 14:22:56;;;;;;;;;;;;;;;19.54;57.55;101852.06;5062040;28;1902;-36
2021/12/16 14:24:09;;;;;;;;;;;;;;;19.41;57.66;101846.72;5074485;28;1919;-36
2021/12/16 14:26:48;;;;;;;;;;;;;;;19.39;58.18;101852.19;5073419;28;1662;-37
2021/12/16 14:35:01;;;;;;;;;;;;;;;19.23;57.74;101841.72;5081662;28;1743;-36
2021/12/16 14:37:36;;;;;;;;;;;;;;;19.17;58.85;101835.94;5082188;28;1880;-36
2021/12/16 14:40:35;;;;;;;;;;;;;;;19.08;58.21;101841.00;5082710;28;1093;-36
2021/12/16 14:43:16;;;;;;;;;;;;;;;19.10;58.22;101850.75;5080823;28;1906;-37
2021/12/16 14:45:46;;;;;;;;;;;;;;;18.90;58.66;101839.66;5073353;28;1769;-36
2021/12/16 14:48:26;;;;;;;;;;;;;;;18.64;59.85;101850.34;5077339;28;1854;-37
2021/12/16 14:50:56;;;;;;;;;;;;;;;18.53;59.86;101846.69;5081420;28;1809;-36
2021/12/16 14:53:27;;;;;;;;;;;;;;;18.39;60.36;101847.63;5082188;28;1799;-36
2021/12/16 14:55:56;;;;;;;;;;;;;;;18.33;60.28;101830.16;5080575;28;1004;-36
2021/12/16 14:58:24;;;;;;;;;;;;;;;18.29;60.28;101845.56;5072156;28;1742;-37
2021/12/16 15:00:53;;;;;;;;;;;;;;;18.17;60.24;101850.91;5072074;28;1817;-37
2021/12/16 15:03:21;;;;;;;;;;;;;;;18.21;60.46;101863.13;5079569;28;1996;-36
2021/12/16 15:05:49;;;;;;;;;;;;;;;18.23;60.32;101867.41;5081453;28;1770;-36
2021/12/16 15:08:23;;;;;;;;;;;;;;;18.18;60.30;101858.81;5075962;28;1829;-36
2021/12/16 15:10:50;;;;;;;;;;;;;;;18.07;60.77;101864.06;5072866;28;1079;-36
2021/12/16 15:13:23;;;;;;;;;;;;;;;18.16;60.51;101866.09;5072082;28;1789;-36
2021/12/16 15:40:39;;;;;;;;;;;;;;;20.81;54.07;101869.31;5065631;28;2407;-36
2021/12/16 15:43:07;;;;;;;;;;;;;;;20.60;55.49;101892.47;5083978;28;1905;-36
2021/12/16 15:45:35;;;;;;;;;;;;;;;20.44;54.79;101890.06;5076971;28;1844;-36
2021/12/16 15:48:04;;;;;;;;;;;;;;;20.50;55.69;101878.00;5074701;28;1872;-36
2021/12/16 15:50:33;;;;;;;;;;;;;;;20.26;55.75;101879.75;5075459;28;1815;-36
2021/12/16 15:53:00;;;;;;;;;;;;;;;20.23;55.67;101881.81;5077850;28;1628;-36
2021/12/16 15:55:33;;;;;;;;;;;;;;;19.97;57.36;101867.69;5085151;28;1070;-36
2021/12/16 15:58:01;;;;;;;;;;;;;;;19.90;57.83;101887.91;5083245;28;1765;-36
2021/12/16 16:00:28;;;;;;;;;;;;;;;19.91;57.55;101881.56;5084291;28;1838;-36
2021/12/16 16:02:56;;;;;;;;;;;;;;;19.75;57.53;101869.28;5083892;28;1993;-36
2021/12/16 16:05:24;;;;;;;;;;;;;;;19.48;58.00;101850.69;5081033;28;1822;-36
2021/12/16 16:07:58;;;;;;;;;;;;;;;19.38;58.28;101865.72;5076890;28;1801;-36
2021/12/16 16:10:24;;;;;;;;;;;;;;;19.26;58.71;101865.66;5078494;28;1103;-36
2021/12/16 16:12:51;;;;;;;;;;;;;;;19.07;58.71;101860.72;5081745;28;1935;-36
2021/12/16 16:15:19;;;;;;;;;;;;;;;18.90;59.06;101870.94;5080103;28;1734;-36